sensor_id;sensor_type;location;lat;lon;timestamp;temperature;humidity
15328;DHT22;7764;51.430;6.840;2022-07-09T00:01:00;18.70;99.90
15328;DHT22;7764;51.430;6.840;2022-07-09T00:03:27;18.60;99.90
15328;DHT22;7764;51.430;6.840;2022-07-09T00:05:54;18.50;99.90
15328;DHT22;7764;51.430;6.840;2022-07-09T00:08:21;18.50;99.90
15328;DHT22;7764;51.430;6.840;2022-07-09T00:10:48;18.50;99.90
15328;DHT22;7764;51.430;6.840;2022-07-09T00:13:15;18.40;99.90
15328;DHT22;7764;51.430;6.840;2022-07-09T00:15:43;18.40;99.90
15328;DHT22;7764;51.430;6.840;2022-07-09T00:18:10;18.40;99.90
15328;DHT22;7764;51.430;6.840;2022-07-09T00:20:37;18.50;99.90
15328;DHT22;7764;51.430;6.840;2022-07-09T00:23:04;18.50;99.90
15328;DHT22;7764;51.430;6.840;2022-07-09T00:25:31;18.40;99.90
15328;DHT22;7764;51.430;6.840;2022-07-09T00:27:58;18.40;99.90
15328;DHT22;7764;51.430;6.840;2022-07-09T00:30:25;18.30;99.90
15328;DHT22;7764;51.430;6.840;2022-07-09T00:32:53;18.40;99.90
15328;DHT22;7764;51.430;6.840;2022-07-09T00:35:20;18.30;99.90
15328;DHT22;7764;51.430;6.840;2022-07-09T00:37:47;18.20;99.90
15328;DHT22;7764;51.430;6.840;2022-07-09T00:40:14;18.20;99.90
15328;DHT22;7764;51.430;6.840;2022-07-09T00:42:41;18.20;99.90
15328;DHT22;7764;51.430;6.840;2022-07-09T00:45:08;18.20;99.90
15328;DHT22;7764;51.430;6.840;2022-07-09T00:47:35;18.20;99.90
15328;DHT22;7764;51.430;6.840;2022-07-09T00:50:04;18.10;99.90
15328;DHT22;7764;51.430;6.840;2022-07-09T00:52:31;18.10;99.90
15328;DHT22;7764;51.430;6.840;2022-07-09T00:55:00;18.00;99.90
15328;DHT22;7764;51.430;6.840;2022-07-09T00:57:27;18.00;99.90
15328;DHT22;7764;51.430;6.840;2022-07-09T00:59:55;18.00;99.90
15328;DHT22;7764;51.430;6.840;2022-07-09T01:02:23;18.00;99.90
15328;DHT22;7764;51.430;6.840;2022-07-09T01:04:50;18.10;99.90
15328;DHT22;7764;51.430;6.840;2022-07-09T01:07:18;18.10;99.90
15328;DHT22;7764;51.430;6.840;2022-07-09T01:09:45;18.10;99.90
15328;DHT22;7764;51.430;6.840;2022-07-09T01:12:12;18.10;99.90
15328;DHT22;7764;51.430;6.840;2022-07-09T01:14:40;18.00;99.90
15328;DHT22;7764;51.430;6.840;2022-07-09T01:17:07;18.10;99.90
15328;DHT22;7764;51.430;6.840;2022-07-09T01:19:34;18.10;99.90
15328;DHT22;7764;51.430;6.840;2022-07-09T01:22:03;18.10;99.90
15328;DHT22;7764;51.430;6.840;2022-07-09T01:24:30;18.00;99.90
15328;DHT22;7764;51.430;6.840;2022-07-09T01:26:56;17.90;99.90
15328;DHT22;7764;51.430;6.840;2022-07-09T01:29:23;17.90;99.90
15328;DHT22;7764;51.430;6.840;2022-07-09T01:31:50;17.80;99.90
15328;DHT22;7764;51.430;6.840;2022-07-09T01:34:17;17.80;99.90
15328;DHT22;7764;51.430;6.840;2022-07-09T01:36:44;17.80;99.90
15328;DHT22;7764;51.430;6.840;2022-07-09T01:39:12;17.80;99.90
15328;DHT22;7764;51.430;6.840;2022-07-09T01:41:39;17.80;99.90
15328;DHT22;7764;51.430;6.840;2022-07-09T01:44:06;17.70;99.90
15328;DHT22;7764;51.430;6.840;2022-07-09T01:46:34;17.70;99.90
15328;DHT22;7764;51.430;6.840;2022-07-09T01:49:01;17.60;99.90
15328;DHT22;7764;51.430;6.840;2022-07-09T01:51:28;17.60;99.90
15328;DHT22;7764;51.430;6.840;2022-07-09T01:53:55;17.60;99.90
15328;DHT22;7764;51.430;6.840;2022-07-09T01:56:23;17.60;99.90
15328;DHT22;7764;51.430;6.840;2022-07-09T01:58:50;17.60;99.90
15328;DHT22;7764;51.430;6.840;2022-07-09T02:01:16;17.70;99.90
15328;DHT22;7764;51.430;6.840;2022-07-09T02:03:43;17.70;99.90
15328;DHT22;7764;51.430;6.840;2022-07-09T02:06:10;17.70;99.90
15328;DHT22;7764;51.430;6.840;2022-07-09T02:08:37;17.70;99.90
15328;DHT22;7764;51.430;6.840;2022-07-09T02:11:05;17.80;99.90
15328;DHT22;7764;51.430;6.840;2022-07-09T02:13:33;17.90;99.90
15328;DHT22;7764;51.430;6.840;2022-07-09T02:16:00;17.90;99.90
15328;DHT22;7764;51.430;6.840;2022-07-09T02:18:27;17.90;99.90
15328;DHT22;7764;51.430;6.840;2022-07-09T02:20:54;17.80;99.90
15328;DHT22;7764;51.430;6.840;2022-07-09T02:23:22;17.80;99.90
15328;DHT22;7764;51.430;6.840;2022-07-09T02:25:49;17.90;99.90
15328;DHT22;7764;51.430;6.840;2022-07-09T02:28:16;17.90;99.90
15328;DHT22;7764;51.430;6.840;2022-07-09T02:30:44;18.00;99.90
15328;DHT22;7764;51.430;6.840;2022-07-09T02:33:11;17.90;99.90
15328;DHT22;7764;51.430;6.840;2022-07-09T02:35:38;17.90;99.90
15328;DHT22;7764;51.430;6.840;2022-07-09T02:38:05;17.90;99.90
15328;DHT22;7764;51.430;6.840;2022-07-09T02:40:32;17.90;99.90
15328;DHT22;7764;51.430;6.840;2022-07-09T02:42:59;17.90;99.90
15328;DHT22;7764;51.430;6.840;2022-07-09T02:45:26;18.00;99.90
15328;DHT22;7764;51.430;6.840;2022-07-09T02:47:54;18.00;99.90
15328;DHT22;7764;51.430;6.840;2022-07-09T02:50:21;18.00;99.90
15328;DHT22;7764;51.430;6.840;2022-07-09T02:52:48;18.00;99.90
15328;DHT22;7764;51.430;6.840;2022-07-09T02:55:14;18.00;99.90
15328;DHT22;7764;51.430;6.840;2022-07-09T02:57:41;18.10;99.90
15328;DHT22;7764;51.430;6.840;2022-07-09T03:00:09;18.10;99.90
15328;DHT22;7764;51.430;6.840;2022-07-09T03:02:36;18.10;99.90
15328;DHT22;7764;51.430;6.840;2022-07-09T03:05:05;18.10;99.90
15328;DHT22;7764;51.430;6.840;2022-07-09T03:07:32;18.10;99.90
15328;DHT22;7764;51.430;6.840;2022-07-09T03:09:59;18.00;99.90
15328;DHT22;7764;51.430;6.840;2022-07-09T03:12:26;18.10;99.90
15328;DHT22;7764;51.430;6.840;2022-07-09T03:14:53;18.10;99.90
15328;DHT22;7764;51.430;6.840;2022-07-09T03:17:19;18.10;99.90
15328;DHT22;7764;51.430;6.840;2022-07-09T03:19:46;18.00;99.90
15328;DHT22;7764;51.430;6.840;2022-07-09T03:22:15;18.00;99.90
15328;DHT22;7764;51.430;6.840;2022-07-09T03:24:41;18.10;99.90
15328;DHT22;7764;51.430;6.840;2022-07-09T03:27:08;18.20;99.90
15328;DHT22;7764;51.430;6.840;2022-07-09T03:29:36;18.20;99.90
15328;DHT22;7764;51.430;6.840;2022-07-09T03:32:03;18.30;99.90
15328;DHT22;7764;51.430;6.840;2022-07-09T03:34:30;18.30;99.90
15328;DHT22;7764;51.430;6.840;2022-07-09T03:36:57;18.20;99.90
15328;DHT22;7764;51.430;6.840;2022-07-09T03:39:26;18.20;99.90
15328;DHT22;7764;51.430;6.840;2022-07-09T03:41:52;18.20;99.90
15328;DHT22;7764;51.430;6.840;2022-07-09T03:44:19;18.20;99.90
15328;DHT22;7764;51.430;6.840;2022-07-09T03:46:46;18.10;99.90
15328;DHT22;7764;51.430;6.840;2022-07-09T03:49:13;18.00;99.90
15328;DHT22;7764;51.430;6.840;2022-07-09T03:51:40;18.00;99.90
15328;DHT22;7764;51.430;6.840;2022-07-09T03:54:08;18.10;99.90
15328;DHT22;7764;51.430;6.840;2022-07-09T03:56:36;18.10;99.90
15328;DHT22;7764;51.430;6.840;2022-07-09T03:59:03;18.20;99.90
15328;DHT22;7764;51.430;6.840;2022-07-09T04:01:30;18.30;99.90
15328;DHT22;7764;51.430;6.840;2022-07-09T04:03:57;18.30;99.90
15328;DHT22;7764;51.430;6.840;2022-07-09T04:06:24;18.40;99.90
15328;DHT22;7764;51.430;6.840;2022-07-09T04:08:51;18.40;99.90
15328;DHT22;7764;51.430;6.840;2022-07-09T04:11:18;18.40;99.90
15328;DHT22;7764;51.430;6.840;2022-07-09T04:13:46;18.40;99.90
15328;DHT22;7764;51.430;6.840;2022-07-09T04:16:13;18.50;99.90
15328;DHT22;7764;51.430;6.840;2022-07-09T04:18:40;18.90;99.90
15328;DHT22;7764;51.430;6.840;2022-07-09T04:21:09;19.30;99.90
15328;DHT22;7764;51.430;6.840;2022-07-09T04:23:36;19.60;99.90
15328;DHT22;7764;51.430;6.840;2022-07-09T04:26:03;19.80;99.90
15328;DHT22;7764;51.430;6.840;2022-07-09T04:28:30;20.10;99.90
15328;DHT22;7764;51.430;6.840;2022-07-09T04:30:58;20.20;99.90
15328;DHT22;7764;51.430;6.840;2022-07-09T04:33:25;19.90;99.90
15328;DHT22;7764;51.430;6.840;2022-07-09T04:35:52;19.60;99.90
15328;DHT22;7764;51.430;6.840;2022-07-09T04:38:19;19.40;99.90
15328;DHT22;7764;51.430;6.840;2022-07-09T04:40:46;19.30;99.90
15328;DHT22;7764;51.430;6.840;2022-07-09T04:43:13;19.60;99.90
15328;DHT22;7764;51.430;6.840;2022-07-09T04:45:40;20.20;99.90
15328;DHT22;7764;51.430;6.840;2022-07-09T04:48:08;20.70;99.90
15328;DHT22;7764;51.430;6.840;2022-07-09T04:50:35;21.00;99.90
15328;DHT22;7764;51.430;6.840;2022-07-09T04:53:02;21.40;99.90
15328;DHT22;7764;51.430;6.840;2022-07-09T04:55:29;21.60;99.90
15328;DHT22;7764;51.430;6.840;2022-07-09T04:57:56;21.70;99.90
15328;DHT22;7764;51.430;6.840;2022-07-09T05:00:22;22.20;99.90
15328;DHT22;7764;51.430;6.840;2022-07-09T05:02:50;22.60;99.90
15328;DHT22;7764;51.430;6.840;2022-07-09T05:05:18;22.90;99.90
15328;DHT22;7764;51.430;6.840;2022-07-09T05:07:47;22.90;99.90
15328;DHT22;7764;51.430;6.840;2022-07-09T05:10:14;22.80;99.90
15328;DHT22;7764;51.430;6.840;2022-07-09T05:12:41;22.80;99.90
15328;DHT22;7764;51.430;6.840;2022-07-09T05:15:09;22.60;99.90
15328;DHT22;7764;51.430;6.840;2022-07-09T05:17:37;22.50;99.90
15328;DHT22;7764;51.430;6.840;2022-07-09T05:20:05;22.80;99.90
15328;DHT22;7764;51.430;6.840;2022-07-09T05:22:35;23.10;99.90
15328;DHT22;7764;51.430;6.840;2022-07-09T05:25:04;22.60;99.90
15328;DHT22;7764;51.430;6.840;2022-07-09T05:27:31;22.50;99.90
15328;DHT22;7764;51.430;6.840;2022-07-09T05:29:58;22.40;99.90
15328;DHT22;7764;51.430;6.840;2022-07-09T05:32:25;22.30;99.90
15328;DHT22;7764;51.430;6.840;2022-07-09T05:34:52;22.20;99.90
15328;DHT22;7764;51.430;6.840;2022-07-09T05:37:19;22.30;99.90
15328;DHT22;7764;51.430;6.840;2022-07-09T05:39:47;22.00;99.90
15328;DHT22;7764;51.430;6.840;2022-07-09T05:42:14;21.80;99.90
15328;DHT22;7764;51.430;6.840;2022-07-09T05:44:41;21.60;99.90
15328;DHT22;7764;51.430;6.840;2022-07-09T05:47:08;21.40;99.90
15328;DHT22;7764;51.430;6.840;2022-07-09T05:49:35;21.50;99.90
15328;DHT22;7764;51.430;6.840;2022-07-09T05:52:02;21.50;99.90
15328;DHT22;7764;51.430;6.840;2022-07-09T05:54:29;21.60;99.90
15328;DHT22;7764;51.430;6.840;2022-07-09T05:56:57;21.70;99.90
15328;DHT22;7764;51.430;6.840;2022-07-09T05:59:24;21.70;99.90
15328;DHT22;7764;51.430;6.840;2022-07-09T06:01:51;21.60;99.90
15328;DHT22;7764;51.430;6.840;2022-07-09T06:04:18;22.00;99.90
15328;DHT22;7764;51.430;6.840;2022-07-09T06:06:45;22.50;99.90
15328;DHT22;7764;51.430;6.840;2022-07-09T06:09:11;22.90;99.90
15328;DHT22;7764;51.430;6.840;2022-07-09T06:11:38;23.40;99.90
15328;DHT22;7764;51.430;6.840;2022-07-09T06:14:07;23.80;99.90
15328;DHT22;7764;51.430;6.840;2022-07-09T06:16:33;24.00;99.90
15328;DHT22;7764;51.430;6.840;2022-07-09T06:19:00;23.80;99.90
15328;DHT22;7764;51.430;6.840;2022-07-09T06:21:27;23.80;99.90
15328;DHT22;7764;51.430;6.840;2022-07-09T06:23:54;23.90;99.90
15328;DHT22;7764;51.430;6.840;2022-07-09T06:26:21;23.90;99.90
15328;DHT22;7764;51.430;6.840;2022-07-09T06:28:48;23.40;99.90
15328;DHT22;7764;51.430;6.840;2022-07-09T06:31:16;23.10;99.90
15328;DHT22;7764;51.430;6.840;2022-07-09T06:33:43;23.20;99.90
15328;DHT22;7764;51.430;6.840;2022-07-09T06:36:10;23.30;99.90
15328;DHT22;7764;51.430;6.840;2022-07-09T06:38:37;23.80;99.90
15328;DHT22;7764;51.430;6.840;2022-07-09T06:41:23;23.80;99.90
15328;DHT22;7764;51.430;6.840;2022-07-09T06:43:50;23.80;99.90
15328;DHT22;7764;51.430;6.840;2022-07-09T06:46:19;23.80;99.90
15328;DHT22;7764;51.430;6.840;2022-07-09T06:48:46;23.80;99.90
15328;DHT22;7764;51.430;6.840;2022-07-09T06:51:13;23.70;99.90
15328;DHT22;7764;51.430;6.840;2022-07-09T06:53:40;23.70;99.90
15328;DHT22;7764;51.430;6.840;2022-07-09T06:56:07;23.70;99.90
15328;DHT22;7764;51.430;6.840;2022-07-09T06:58:34;23.50;99.90
15328;DHT22;7764;51.430;6.840;2022-07-09T07:01:01;23.30;99.90
15328;DHT22;7764;51.430;6.840;2022-07-09T07:03:29;23.50;99.90
15328;DHT22;7764;51.430;6.840;2022-07-09T07:05:56;23.60;99.90
15328;DHT22;7764;51.430;6.840;2022-07-09T07:08:23;23.90;99.90
15328;DHT22;7764;51.430;6.840;2022-07-09T07:10:49;24.10;99.90
15328;DHT22;7764;51.430;6.840;2022-07-09T07:13:16;24.00;99.90
15328;DHT22;7764;51.430;6.840;2022-07-09T07:15:43;24.00;99.90
15328;DHT22;7764;51.430;6.840;2022-07-09T07:18:14;24.30;99.90
15328;DHT22;7764;51.430;6.840;2022-07-09T07:20:43;24.30;99.90
15328;DHT22;7764;51.430;6.840;2022-07-09T07:23:10;24.50;99.90
15328;DHT22;7764;51.430;6.840;2022-07-09T07:25:37;24.50;99.90
15328;DHT22;7764;51.430;6.840;2022-07-09T07:28:04;24.60;99.90
15328;DHT22;7764;51.430;6.840;2022-07-09T07:30:31;24.70;99.90
15328;DHT22;7764;51.430;6.840;2022-07-09T07:32:59;24.60;99.90
15328;DHT22;7764;51.430;6.840;2022-07-09T07:35:26;24.30;99.90
15328;DHT22;7764;51.430;6.840;2022-07-09T07:37:54;24.30;99.90
15328;DHT22;7764;51.430;6.840;2022-07-09T07:40:22;24.10;99.90
15328;DHT22;7764;51.430;6.840;2022-07-09T07:42:50;24.30;99.90
15328;DHT22;7764;51.430;6.840;2022-07-09T07:45:17;24.40;99.90
15328;DHT22;7764;51.430;6.840;2022-07-09T07:47:43;24.80;99.90
15328;DHT22;7764;51.430;6.840;2022-07-09T07:50:10;25.20;99.90
15328;DHT22;7764;51.430;6.840;2022-07-09T07:52:37;24.80;99.90
15328;DHT22;7764;51.430;6.840;2022-07-09T07:55:06;25.00;99.90
15328;DHT22;7764;51.430;6.840;2022-07-09T07:57:33;25.60;99.90
15328;DHT22;7764;51.430;6.840;2022-07-09T08:00:00;25.60;99.90
15328;DHT22;7764;51.430;6.840;2022-07-09T08:02:28;25.90;99.90
15328;DHT22;7764;51.430;6.840;2022-07-09T08:04:54;25.70;99.90
15328;DHT22;7764;51.430;6.840;2022-07-09T08:07:21;25.00;99.90
15328;DHT22;7764;51.430;6.840;2022-07-09T08:09:48;24.70;99.90
15328;DHT22;7764;51.430;6.840;2022-07-09T08:12:17;24.70;99.90
15328;DHT22;7764;51.430;6.840;2022-07-09T08:14:44;24.90;99.90
15328;DHT22;7764;51.430;6.840;2022-07-09T08:17:11;24.70;99.90
15328;DHT22;7764;51.430;6.840;2022-07-09T08:19:38;24.60;99.90
15328;DHT22;7764;51.430;6.840;2022-07-09T08:22:05;24.50;99.90
15328;DHT22;7764;51.430;6.840;2022-07-09T08:24:31;24.20;99.90
15328;DHT22;7764;51.430;6.840;2022-07-09T08:26:58;23.90;99.90
15328;DHT22;7764;51.430;6.840;2022-07-09T08:29:27;24.00;99.90
15328;DHT22;7764;51.430;6.840;2022-07-09T08:31:53;23.80;99.90
15328;DHT22;7764;51.430;6.840;2022-07-09T08:34:20;23.80;99.90
15328;DHT22;7764;51.430;6.840;2022-07-09T08:36:47;23.60;99.90
15328;DHT22;7764;51.430;6.840;2022-07-09T08:39:14;23.60;99.90
15328;DHT22;7764;51.430;6.840;2022-07-09T08:41:42;23.80;99.90
15328;DHT22;7764;51.430;6.840;2022-07-09T08:44:10;24.20;99.90
15328;DHT22;7764;51.430;6.840;2022-07-09T08:46:39;24.60;99.90
15328;DHT22;7764;51.430;6.840;2022-07-09T08:49:07;24.40;99.90
15328;DHT22;7764;51.430;6.840;2022-07-09T08:51:35;24.70;99.90
15328;DHT22;7764;51.430;6.840;2022-07-09T08:54:02;24.80;99.90
15328;DHT22;7764;51.430;6.840;2022-07-09T08:56:29;25.20;99.90
15328;DHT22;7764;51.430;6.840;2022-07-09T08:58:56;25.20;99.90
15328;DHT22;7764;51.430;6.840;2022-07-09T09:01:25;25.30;99.90
15328;DHT22;7764;51.430;6.840;2022-07-09T09:03:54;25.80;99.90
15328;DHT22;7764;51.430;6.840;2022-07-09T09:06:22;25.20;99.90
15328;DHT22;7764;51.430;6.840;2022-07-09T09:08:53;25.40;99.90
15328;DHT22;7764;51.430;6.840;2022-07-09T09:11:21;25.70;99.90
15328;DHT22;7764;51.430;6.840;2022-07-09T09:13:49;25.80;99.90
15328;DHT22;7764;51.430;6.840;2022-07-09T09:16:17;25.80;99.90
15328;DHT22;7764;51.430;6.840;2022-07-09T09:18:45;26.20;99.90
15328;DHT22;7764;51.430;6.840;2022-07-09T09:21:16;26.50;99.90
15328;DHT22;7764;51.430;6.840;2022-07-09T09:23:46;26.20;99.90
15328;DHT22;7764;51.430;6.840;2022-07-09T09:26:14;26.20;99.90
15328;DHT22;7764;51.430;6.840;2022-07-09T09:28:49;26.50;99.90
15328;DHT22;7764;51.430;6.840;2022-07-09T09:31:25;26.60;99.90
15328;DHT22;7764;51.430;6.840;2022-07-09T09:33:53;26.60;99.30
15328;DHT22;7764;51.430;6.840;2022-07-09T09:36:30;26.50;99.90
15328;DHT22;7764;51.430;6.840;2022-07-09T09:39:17;26.50;99.90
15328;DHT22;7764;51.430;6.840;2022-07-09T09:41:46;26.70;99.90
15328;DHT22;7764;51.430;6.840;2022-07-09T09:44:16;26.70;99.90
15328;DHT22;7764;51.430;6.840;2022-07-09T09:46:43;26.50;99.90
15328;DHT22;7764;51.430;6.840;2022-07-09T09:49:12;25.90;99.90
15328;DHT22;7764;51.430;6.840;2022-07-09T09:51:46;25.80;99.90
15328;DHT22;7764;51.430;6.840;2022-07-09T09:54:15;25.90;99.90
15328;DHT22;7764;51.430;6.840;2022-07-09T09:56:42;26.30;99.90
15328;DHT22;7764;51.430;6.840;2022-07-09T09:59:09;26.20;99.90
15328;DHT22;7764;51.430;6.840;2022-07-09T10:01:37;26.10;99.90
15328;DHT22;7764;51.430;6.840;2022-07-09T10:04:05;26.10;99.90
15328;DHT22;7764;51.430;6.840;2022-07-09T10:06:32;25.80;99.90
15328;DHT22;7764;51.430;6.840;2022-07-09T10:09:03;25.60;99.90
15328;DHT22;7764;51.430;6.840;2022-07-09T10:11:41;25.70;99.90
15328;DHT22;7764;51.430;6.840;2022-07-09T10:14:14;25.70;99.90
15328;DHT22;7764;51.430;6.840;2022-07-09T10:16:41;25.80;99.90
15328;DHT22;7764;51.430;6.840;2022-07-09T10:19:08;25.90;99.90
15328;DHT22;7764;51.430;6.840;2022-07-09T10:21:37;26.20;99.90
15328;DHT22;7764;51.430;6.840;2022-07-09T10:24:07;26.20;99.90
15328;DHT22;7764;51.430;6.840;2022-07-09T10:26:43;26.30;99.90
15328;DHT22;7764;51.430;6.840;2022-07-09T10:29:23;26.10;99.90
15328;DHT22;7764;51.430;6.840;2022-07-09T10:31:51;26.20;99.90
15328;DHT22;7764;51.430;6.840;2022-07-09T10:34:36;26.20;99.90
15328;DHT22;7764;51.430;6.840;2022-07-09T10:37:04;25.70;99.90
15328;DHT22;7764;51.430;6.840;2022-07-09T10:39:33;26.00;99.90
15328;DHT22;7764;51.430;6.840;2022-07-09T10:42:01;26.00;99.90
15328;DHT22;7764;51.430;6.840;2022-07-09T10:44:33;26.00;99.90
15328;DHT22;7764;51.430;6.840;2022-07-09T10:47:00;26.00;99.90
15328;DHT22;7764;51.430;6.840;2022-07-09T10:49:27;25.90;99.90
15328;DHT22;7764;51.430;6.840;2022-07-09T10:51:55;25.80;99.90
15328;DHT22;7764;51.430;6.840;2022-07-09T10:54:24;25.80;99.90
15328;DHT22;7764;51.430;6.840;2022-07-09T10:56:53;26.10;99.90
15328;DHT22;7764;51.430;6.840;2022-07-09T10:59:20;26.20;99.90
15328;DHT22;7764;51.430;6.840;2022-07-09T11:01:48;26.20;99.90
15328;DHT22;7764;51.430;6.840;2022-07-09T11:04:26;26.50;99.90
15328;DHT22;7764;51.430;6.840;2022-07-09T11:06:53;26.20;99.90
15328;DHT22;7764;51.430;6.840;2022-07-09T11:09:20;26.20;99.90
15328;DHT22;7764;51.430;6.840;2022-07-09T11:11:47;26.00;99.90
15328;DHT22;7764;51.430;6.840;2022-07-09T11:14:16;26.20;99.90
15328;DHT22;7764;51.430;6.840;2022-07-09T11:16:53;26.40;99.90
15328;DHT22;7764;51.430;6.840;2022-07-09T11:19:20;26.60;99.90
15328;DHT22;7764;51.430;6.840;2022-07-09T11:21:47;26.50;99.90
15328;DHT22;7764;51.430;6.840;2022-07-09T11:24:15;26.00;99.90
15328;DHT22;7764;51.430;6.840;2022-07-09T11:26:42;25.90;99.90
15328;DHT22;7764;51.430;6.840;2022-07-09T11:29:09;25.80;99.90
15328;DHT22;7764;51.430;6.840;2022-07-09T11:31:46;25.90;99.90
15328;DHT22;7764;51.430;6.840;2022-07-09T11:34:14;25.90;99.90
15328;DHT22;7764;51.430;6.840;2022-07-09T11:36:42;26.10;99.90
15328;DHT22;7764;51.430;6.840;2022-07-09T11:39:15;26.20;99.90
15328;DHT22;7764;51.430;6.840;2022-07-09T11:41:47;26.20;99.90
15328;DHT22;7764;51.430;6.840;2022-07-09T11:44:20;26.10;99.90
15328;DHT22;7764;51.430;6.840;2022-07-09T11:47:04;26.20;99.90
15328;DHT22;7764;51.430;6.840;2022-07-09T11:49:33;26.20;99.90
15328;DHT22;7764;51.430;6.840;2022-07-09T11:51:59;26.00;99.90
15328;DHT22;7764;51.430;6.840;2022-07-09T11:54:27;25.70;99.90
15328;DHT22;7764;51.430;6.840;2022-07-09T11:56:54;25.70;99.90
15328;DHT22;7764;51.430;6.840;2022-07-09T11:59:26;25.90;99.90
15328;DHT22;7764;51.430;6.840;2022-07-09T12:01:53;26.20;99.90
15328;DHT22;7764;51.430;6.840;2022-07-09T12:04:22;26.10;99.90
15328;DHT22;7764;51.430;6.840;2022-07-09T12:06:49;25.90;99.90
15328;DHT22;7764;51.430;6.840;2022-07-09T12:09:27;25.70;99.90
15328;DHT22;7764;51.430;6.840;2022-07-09T12:11:55;25.50;99.90
15328;DHT22;7764;51.430;6.840;2022-07-09T12:14:22;25.30;99.90
15328;DHT22;7764;51.430;6.840;2022-07-09T12:16:49;25.10;99.90
15328;DHT22;7764;51.430;6.840;2022-07-09T12:19:16;24.90;99.90
15328;DHT22;7764;51.430;6.840;2022-07-09T12:21:44;24.70;99.90
15328;DHT22;7764;51.430;6.840;2022-07-09T12:24:11;24.60;99.90
15328;DHT22;7764;51.430;6.840;2022-07-09T12:26:38;24.60;99.90
15328;DHT22;7764;51.430;6.840;2022-07-09T12:29:05;24.60;99.90
15328;DHT22;7764;51.430;6.840;2022-07-09T12:31:32;24.60;99.90
15328;DHT22;7764;51.430;6.840;2022-07-09T12:34:02;24.50;99.90
15328;DHT22;7764;51.430;6.840;2022-07-09T12:36:29;24.40;99.90
15328;DHT22;7764;51.430;6.840;2022-07-09T12:38:58;24.30;99.90
15328;DHT22;7764;51.430;6.840;2022-07-09T12:41:24;24.20;99.90
15328;DHT22;7764;51.430;6.840;2022-07-09T12:43:51;23.40;99.90
15328;DHT22;7764;51.430;6.840;2022-07-09T12:46:18;22.80;99.90
15328;DHT22;7764;51.430;6.840;2022-07-09T12:48:45;22.20;99.90
15328;DHT22;7764;51.430;6.840;2022-07-09T12:51:12;21.70;99.90
15328;DHT22;7764;51.430;6.840;2022-07-09T12:53:39;21.40;99.90
15328;DHT22;7764;51.430;6.840;2022-07-09T12:56:07;21.30;99.90
15328;DHT22;7764;51.430;6.840;2022-07-09T12:58:34;21.10;99.90
15328;DHT22;7764;51.430;6.840;2022-07-09T13:01:01;21.00;99.90
15328;DHT22;7764;51.430;6.840;2022-07-09T13:03:28;21.20;99.90
15328;DHT22;7764;51.430;6.840;2022-07-09T13:05:55;21.10;99.90
15328;DHT22;7764;51.430;6.840;2022-07-09T13:08:22;21.40;99.90
15328;DHT22;7764;51.430;6.840;2022-07-09T13:10:49;21.60;99.90
15328;DHT22;7764;51.430;6.840;2022-07-09T13:13:17;22.00;99.90
15328;DHT22;7764;51.430;6.840;2022-07-09T13:15:45;22.10;99.90
15328;DHT22;7764;51.430;6.840;2022-07-09T13:18:12;21.90;99.90
15328;DHT22;7764;51.430;6.840;2022-07-09T13:20:40;22.00;99.90
15328;DHT22;7764;51.430;6.840;2022-07-09T13:23:07;21.90;99.90
15328;DHT22;7764;51.430;6.840;2022-07-09T13:25:33;22.00;99.90
15328;DHT22;7764;51.430;6.840;2022-07-09T13:28:00;22.00;99.90
15328;DHT22;7764;51.430;6.840;2022-07-09T13:30:29;22.20;99.90
15328;DHT22;7764;51.430;6.840;2022-07-09T13:32:55;22.40;99.90
15328;DHT22;7764;51.430;6.840;2022-07-09T13:35:22;22.60;99.90
15328;DHT22;7764;51.430;6.840;2022-07-09T13:37:50;22.50;99.90
15328;DHT22;7764;51.430;6.840;2022-07-09T13:40:17;22.60;99.90
15328;DHT22;7764;51.430;6.840;2022-07-09T13:42:43;22.70;99.90
15328;DHT22;7764;51.430;6.840;2022-07-09T13:45:11;22.90;99.90
15328;DHT22;7764;51.430;6.840;2022-07-09T13:47:39;22.80;99.90
15328;DHT22;7764;51.430;6.840;2022-07-09T13:50:06;22.90;99.90
15328;DHT22;7764;51.430;6.840;2022-07-09T13:52:34;23.10;99.90
15328;DHT22;7764;51.430;6.840;2022-07-09T13:55:01;23.20;99.90
15328;DHT22;7764;51.430;6.840;2022-07-09T13:57:27;23.30;99.90
15328;DHT22;7764;51.430;6.840;2022-07-09T13:59:54;23.20;99.90
15328;DHT22;7764;51.430;6.840;2022-07-09T14:02:21;23.30;99.90
15328;DHT22;7764;51.430;6.840;2022-07-09T14:04:51;23.50;99.90
15328;DHT22;7764;51.430;6.840;2022-07-09T14:07:18;23.60;99.90
15328;DHT22;7764;51.430;6.840;2022-07-09T14:09:45;23.40;99.90
15328;DHT22;7764;51.430;6.840;2022-07-09T14:12:12;23.40;99.90
15328;DHT22;7764;51.430;6.840;2022-07-09T14:14:39;23.40;99.90
15328;DHT22;7764;51.430;6.840;2022-07-09T14:17:06;23.30;99.90
15328;DHT22;7764;51.430;6.840;2022-07-09T14:19:33;23.60;99.90
15328;DHT22;7764;51.430;6.840;2022-07-09T14:22:01;23.70;99.90
15328;DHT22;7764;51.430;6.840;2022-07-09T14:24:28;23.90;99.90
15328;DHT22;7764;51.430;6.840;2022-07-09T14:26:55;24.00;99.90
15328;DHT22;7764;51.430;6.840;2022-07-09T14:29:22;24.00;99.90
15328;DHT22;7764;51.430;6.840;2022-07-09T14:31:49;23.70;99.90
15328;DHT22;7764;51.430;6.840;2022-07-09T14:34:17;23.60;99.90
15328;DHT22;7764;51.430;6.840;2022-07-09T14:36:44;23.60;99.90
15328;DHT22;7764;51.430;6.840;2022-07-09T14:39:12;23.70;99.90
15328;DHT22;7764;51.430;6.840;2022-07-09T14:41:39;23.80;99.90
15328;DHT22;7764;51.430;6.840;2022-07-09T14:44:06;23.80;99.90
15328;DHT22;7764;51.430;6.840;2022-07-09T14:46:33;23.90;99.90
15328;DHT22;7764;51.430;6.840;2022-07-09T14:49:00;24.00;99.90
15328;DHT22;7764;51.430;6.840;2022-07-09T14:51:27;23.90;99.90
15328;DHT22;7764;51.430;6.840;2022-07-09T14:53:54;23.90;99.90
15328;DHT22;7764;51.430;6.840;2022-07-09T14:56:22;23.80;99.90
15328;DHT22;7764;51.430;6.840;2022-07-09T14:58:49;23.80;99.90
15328;DHT22;7764;51.430;6.840;2022-07-09T15:01:16;24.00;99.90
15328;DHT22;7764;51.430;6.840;2022-07-09T15:03:43;24.20;99.90
15328;DHT22;7764;51.430;6.840;2022-07-09T15:06:10;24.30;99.90
15328;DHT22;7764;51.430;6.840;2022-07-09T15:08:37;24.20;99.90
15328;DHT22;7764;51.430;6.840;2022-07-09T15:11:04;24.10;99.90
15328;DHT22;7764;51.430;6.840;2022-07-09T15:13:33;24.10;99.90
15328;DHT22;7764;51.430;6.840;2022-07-09T15:15:59;24.10;99.90
15328;DHT22;7764;51.430;6.840;2022-07-09T15:18:26;24.10;99.90
15328;DHT22;7764;51.430;6.840;2022-07-09T15:20:53;24.10;99.90
15328;DHT22;7764;51.430;6.840;2022-07-09T15:23:21;24.10;99.90
15328;DHT22;7764;51.430;6.840;2022-07-09T15:25:48;24.00;99.90
15328;DHT22;7764;51.430;6.840;2022-07-09T15:28:15;24.00;99.90
15328;DHT22;7764;51.430;6.840;2022-07-09T15:30:43;24.00;99.90
15328;DHT22;7764;51.430;6.840;2022-07-09T15:33:10;23.90;99.90
15328;DHT22;7764;51.430;6.840;2022-07-09T15:35:41;24.00;99.90
15328;DHT22;7764;51.430;6.840;2022-07-09T15:38:08;23.90;99.90
15328;DHT22;7764;51.430;6.840;2022-07-09T15:40:35;23.80;99.90
15328;DHT22;7764;51.430;6.840;2022-07-09T15:43:01;23.80;99.90
15328;DHT22;7764;51.430;6.840;2022-07-09T15:45:31;23.70;99.90
15328;DHT22;7764;51.430;6.840;2022-07-09T15:47:59;23.50;99.90